sensor_id;sensor_type;location;lat;lon;timestamp;temperature;humidity
19281;DHT22;9774;52.034;5.342;2023-08-17T00:01:32;23.20;54.70
19281;DHT22;9774;52.034;5.342;2023-08-17T00:03:59;23.20;54.80
19281;DHT22;9774;52.034;5.342;2023-08-17T00:06:26;23.20;54.80
19281;DHT22;9774;52.034;5.342;2023-08-17T00:08:55;23.20;54.80
19281;DHT22;9774;52.034;5.342;2023-08-17T00:11:22;23.10;54.90
19281;DHT22;9774;52.034;5.342;2023-08-17T00:13:49;23.10;54.90
19281;DHT22;9774;52.034;5.342;2023-08-17T00:16:16;23.10;54.90
19281;DHT22;9774;52.034;5.342;2023-08-17T00:18:43;23.10;54.90
19281;DHT22;9774;52.034;5.342;2023-08-17T00:21:10;23.00;54.90
19281;DHT22;9774;52.034;5.342;2023-08-17T00:23:38;23.00;55.00
19281;DHT22;9774;52.034;5.342;2023-08-17T00:26:07;23.00;55.00
19281;DHT22;9774;52.034;5.342;2023-08-17T00:28:35;23.00;55.10
19281;DHT22;9774;52.034;5.342;2023-08-17T00:31:02;23.00;55.10
19281;DHT22;9774;52.034;5.342;2023-08-17T00:33:29;22.90;55.00
19281;DHT22;9774;52.034;5.342;2023-08-17T00:35:56;22.90;55.10
19281;DHT22;9774;52.034;5.342;2023-08-17T00:38:24;22.90;55.20
19281;DHT22;9774;52.034;5.342;2023-08-17T00:40:52;22.90;55.20
19281;DHT22;9774;52.034;5.342;2023-08-17T00:43:21;22.90;55.30
19281;DHT22;9774;52.034;5.342;2023-08-17T00:45:48;22.80;55.30
19281;DHT22;9774;52.034;5.342;2023-08-17T00:48:15;22.80;55.30
19281;DHT22;9774;52.034;5.342;2023-08-17T00:50:43;22.80;55.40
19281;DHT22;9774;52.034;5.342;2023-08-17T00:53:14;22.80;55.50
19281;DHT22;9774;52.034;5.342;2023-08-17T00:55:42;22.70;55.50
19281;DHT22;9774;52.034;5.342;2023-08-17T00:58:09;22.70;55.50
19281;DHT22;9774;52.034;5.342;2023-08-17T01:00:39;22.70;55.60
19281;DHT22;9774;52.034;5.342;2023-08-17T01:03:06;22.60;55.60
19281;DHT22;9774;52.034;5.342;2023-08-17T01:05:34;22.60;55.70
19281;DHT22;9774;52.034;5.342;2023-08-17T01:08:02;22.60;55.70
19281;DHT22;9774;52.034;5.342;2023-08-17T01:10:35;22.60;55.70
19281;DHT22;9774;52.034;5.342;2023-08-17T01:13:10;22.60;55.90
19281;DHT22;9774;52.034;5.342;2023-08-17T01:15:46;22.60;55.90
19281;DHT22;9774;52.034;5.342;2023-08-17T01:18:22;22.50;55.90
19281;DHT22;9774;52.034;5.342;2023-08-17T01:20:53;22.50;55.90
19281;DHT22;9774;52.034;5.342;2023-08-17T01:23:23;22.50;55.90
19281;DHT22;9774;52.034;5.342;2023-08-17T01:25:50;22.40;55.90
19281;DHT22;9774;52.034;5.342;2023-08-17T01:28:19;22.50;56.00
19281;DHT22;9774;52.034;5.342;2023-08-17T01:30:52;22.50;56.00
19281;DHT22;9774;52.034;5.342;2023-08-17T01:33:28;22.40;56.00
19281;DHT22;9774;52.034;5.342;2023-08-17T01:36:05;22.40;56.10
19281;DHT22;9774;52.034;5.342;2023-08-17T01:38:40;22.40;56.20
19281;DHT22;9774;52.034;5.342;2023-08-17T01:41:09;22.40;56.10
19281;DHT22;9774;52.034;5.342;2023-08-17T01:43:39;22.40;56.10
19281;DHT22;9774;52.034;5.342;2023-08-17T01:46:10;22.40;56.10
19281;DHT22;9774;52.034;5.342;2023-08-17T01:48:39;22.30;56.10
19281;DHT22;9774;52.034;5.342;2023-08-17T01:51:06;22.40;56.20
19281;DHT22;9774;52.034;5.342;2023-08-17T01:53:33;22.30;56.20
19281;DHT22;9774;52.034;5.342;2023-08-17T01:56:02;22.30;56.20
19281;DHT22;9774;52.034;5.342;2023-08-17T01:58:29;22.30;56.30
19281;DHT22;9774;52.034;5.342;2023-08-17T02:00:56;22.30;56.30
19281;DHT22;9774;52.034;5.342;2023-08-17T02:03:23;22.30;56.30
19281;DHT22;9774;52.034;5.342;2023-08-17T02:05:50;22.30;56.30
19281;DHT22;9774;52.034;5.342;2023-08-17T02:08:17;22.30;56.40
19281;DHT22;9774;52.034;5.342;2023-08-17T02:10:44;22.30;56.40
19281;DHT22;9774;52.034;5.342;2023-08-17T02:13:12;22.30;56.40
19281;DHT22;9774;52.034;5.342;2023-08-17T02:15:39;22.20;56.40
19281;DHT22;9774;52.034;5.342;2023-08-17T02:18:06;22.20;56.40
19281;DHT22;9774;52.034;5.342;2023-08-17T02:20:34;22.20;56.40
19281;DHT22;9774;52.034;5.342;2023-08-17T02:23:01;22.20;56.40
19281;DHT22;9774;52.034;5.342;2023-08-17T02:25:28;22.20;56.50
19281;DHT22;9774;52.034;5.342;2023-08-17T02:28:00;22.20;56.50
19281;DHT22;9774;52.034;5.342;2023-08-17T02:30:29;22.10;56.50
19281;DHT22;9774;52.034;5.342;2023-08-17T02:32:56;22.10;56.50
19281;DHT22;9774;52.034;5.342;2023-08-17T02:35:23;22.10;56.60
19281;DHT22;9774;52.034;5.342;2023-08-17T02:37:50;22.10;56.60
19281;DHT22;9774;52.034;5.342;2023-08-17T02:40:17;22.10;56.60
19281;DHT22;9774;52.034;5.342;2023-08-17T02:42:44;22.10;56.60
19281;DHT22;9774;52.034;5.342;2023-08-17T02:45:11;22.10;56.70
19281;DHT22;9774;52.034;5.342;2023-08-17T02:47:40;22.00;56.70
19281;DHT22;9774;52.034;5.342;2023-08-17T02:50:07;22.00;56.80
19281;DHT22;9774;52.034;5.342;2023-08-17T02:52:35;22.00;56.70
19281;DHT22;9774;52.034;5.342;2023-08-17T02:55:02;22.00;56.80
19281;DHT22;9774;52.034;5.342;2023-08-17T02:57:30;22.00;56.90
19281;DHT22;9774;52.034;5.342;2023-08-17T02:59:57;21.90;56.90
19281;DHT22;9774;52.034;5.342;2023-08-17T03:02:23;22.00;56.90
19281;DHT22;9774;52.034;5.342;2023-08-17T03:04:53;22.00;57.00
19281;DHT22;9774;52.034;5.342;2023-08-17T03:07:20;22.00;57.00
19281;DHT22;9774;52.034;5.342;2023-08-17T03:09:47;22.00;57.00
19281;DHT22;9774;52.034;5.342;2023-08-17T03:12:14;22.00;57.00
19281;DHT22;9774;52.034;5.342;2023-08-17T03:14:41;21.90;57.00
19281;DHT22;9774;52.034;5.342;2023-08-17T03:17:08;21.90;57.10
19281;DHT22;9774;52.034;5.342;2023-08-17T03:19:35;21.90;57.10
19281;DHT22;9774;52.034;5.342;2023-08-17T03:22:03;21.90;57.10
19281;DHT22;9774;52.034;5.342;2023-08-17T03:24:30;21.80;57.10
19281;DHT22;9774;52.034;5.342;2023-08-17T03:26:57;21.80;57.20
19281;DHT22;9774;52.034;5.342;2023-08-17T03:29:24;21.80;57.20
19281;DHT22;9774;52.034;5.342;2023-08-17T03:31:52;21.80;57.20
19281;DHT22;9774;52.034;5.342;2023-08-17T03:34:19;21.80;57.30
19281;DHT22;9774;52.034;5.342;2023-08-17T03:36:46;21.80;57.30
19281;DHT22;9774;52.034;5.342;2023-08-17T03:39:14;21.80;57.30
19281;DHT22;9774;52.034;5.342;2023-08-17T03:41:42;21.80;57.40
19281;DHT22;9774;52.034;5.342;2023-08-17T03:44:08;21.80;57.30
19281;DHT22;9774;52.034;5.342;2023-08-17T03:46:35;21.80;57.40
19281;DHT22;9774;52.034;5.342;2023-08-17T03:49:03;21.70;57.30
19281;DHT22;9774;52.034;5.342;2023-08-17T03:51:30;21.70;57.40
19281;DHT22;9774;52.034;5.342;2023-08-17T03:53:57;21.70;57.50
19281;DHT22;9774;52.034;5.342;2023-08-17T03:56:25;21.70;57.40
19281;DHT22;9774;52.034;5.342;2023-08-17T03:58:53;21.70;57.50
19281;DHT22;9774;52.034;5.342;2023-08-17T04:01:20;21.70;57.60
19281;DHT22;9774;52.034;5.342;2023-08-17T04:03:47;21.70;57.50
19281;DHT22;9774;52.034;5.342;2023-08-17T04:06:14;21.70;57.50
19281;DHT22;9774;52.034;5.342;2023-08-17T04:08:41;21.60;57.50
19281;DHT22;9774;52.034;5.342;2023-08-17T04:11:08;21.60;57.50
19281;DHT22;9774;52.034;5.342;2023-08-17T04:13:36;21.70;57.70
19281;DHT22;9774;52.034;5.342;2023-08-17T04:16:03;21.60;57.70
19281;DHT22;9774;52.034;5.342;2023-08-17T04:18:30;21.60;57.70
19281;DHT22;9774;52.034;5.342;2023-08-17T04:20:57;21.60;57.60
19281;DHT22;9774;52.034;5.342;2023-08-17T04:23:24;21.60;57.70
19281;DHT22;9774;52.034;5.342;2023-08-17T04:25:53;21.60;57.70
19281;DHT22;9774;52.034;5.342;2023-08-17T04:28:21;21.60;57.70
19281;DHT22;9774;52.034;5.342;2023-08-17T04:30:49;21.60;57.70
19281;DHT22;9774;52.034;5.342;2023-08-17T04:33:16;21.60;57.80
19281;DHT22;9774;52.034;5.342;2023-08-17T04:35:46;21.60;57.80
19281;DHT22;9774;52.034;5.342;2023-08-17T04:38:14;21.60;57.80
19281;DHT22;9774;52.034;5.342;2023-08-17T04:40:41;21.60;57.80
19281;DHT22;9774;52.034;5.342;2023-08-17T04:43:09;21.60;57.80
19281;DHT22;9774;52.034;5.342;2023-08-17T04:45:37;21.60;57.80
19281;DHT22;9774;52.034;5.342;2023-08-17T04:48:06;21.60;57.80
19281;DHT22;9774;52.034;5.342;2023-08-17T04:50:33;21.60;57.80
19281;DHT22;9774;52.034;5.342;2023-08-17T04:53:00;21.60;57.80
19281;DHT22;9774;52.034;5.342;2023-08-17T04:55:28;21.60;57.80
19281;DHT22;9774;52.034;5.342;2023-08-17T04:57:57;21.60;57.90
19281;DHT22;9774;52.034;5.342;2023-08-17T05:00:24;21.60;57.90
19281;DHT22;9774;52.034;5.342;2023-08-17T05:02:53;21.50;57.90
19281;DHT22;9774;52.034;5.342;2023-08-17T05:05:22;21.50;57.90
19281;DHT22;9774;52.034;5.342;2023-08-17T05:07:49;21.60;58.40
19281;DHT22;9774;52.034;5.342;2023-08-17T05:10:16;21.50;57.90
19281;DHT22;9774;52.034;5.342;2023-08-17T05:12:43;21.60;57.90
19281;DHT22;9774;52.034;5.342;2023-08-17T05:15:13;21.60;58.00
19281;DHT22;9774;52.034;5.342;2023-08-17T05:17:40;21.50;58.00
19281;DHT22;9774;52.034;5.342;2023-08-17T05:20:08;21.50;58.00
19281;DHT22;9774;52.034;5.342;2023-08-17T05:22:36;21.50;58.00
19281;DHT22;9774;52.034;5.342;2023-08-17T05:25:04;21.50;58.10
19281;DHT22;9774;52.034;5.342;2023-08-17T05:27:32;21.50;58.10
19281;DHT22;9774;52.034;5.342;2023-08-17T05:29:59;21.50;58.10
19281;DHT22;9774;52.034;5.342;2023-08-17T05:32:26;21.50;58.10
19281;DHT22;9774;52.034;5.342;2023-08-17T05:34:53;21.50;58.10
19281;DHT22;9774;52.034;5.342;2023-08-17T05:37:20;21.50;58.20
19281;DHT22;9774;52.034;5.342;2023-08-17T05:39:48;21.50;58.20
19281;DHT22;9774;52.034;5.342;2023-08-17T05:42:15;21.50;58.30
19281;DHT22;9774;52.034;5.342;2023-08-17T05:44:42;21.50;58.20
19281;DHT22;9774;52.034;5.342;2023-08-17T05:47:09;21.50;58.30
19281;DHT22;9774;52.034;5.342;2023-08-17T05:49:36;21.60;58.40
19281;DHT22;9774;52.034;5.342;2023-08-17T05:52:03;21.60;58.30
19281;DHT22;9774;52.034;5.342;2023-08-17T05:54:31;21.60;58.40
19281;DHT22;9774;52.034;5.342;2023-08-17T05:56:59;21.60;58.50
19281;DHT22;9774;52.034;5.342;2023-08-17T05:59:26;21.60;58.50
19281;DHT22;9774;52.034;5.342;2023-08-17T06:01:53;21.60;58.50
19281;DHT22;9774;52.034;5.342;2023-08-17T06:04:20;21.60;58.60
19281;DHT22;9774;52.034;5.342;2023-08-17T06:06:47;21.70;59.20
19281;DHT22;9774;52.034;5.342;2023-08-17T06:09:15;21.70;58.60
19281;DHT22;9774;52.034;5.342;2023-08-17T06:11:41;21.80;58.60
19281;DHT22;9774;52.034;5.342;2023-08-17T06:14:10;21.80;58.60
19281;DHT22;9774;52.034;5.342;2023-08-17T06:16:37;21.90;58.70
19281;DHT22;9774;52.034;5.342;2023-08-17T06:19:04;21.90;58.70
19281;DHT22;9774;52.034;5.342;2023-08-17T06:21:31;22.00;58.70
19281;DHT22;9774;52.034;5.342;2023-08-17T06:23:58;22.00;58.60
19281;DHT22;9774;52.034;5.342;2023-08-17T06:26:25;22.00;58.60
19281;DHT22;9774;52.034;5.342;2023-08-17T06:28:52;22.10;58.50
19281;DHT22;9774;52.034;5.342;2023-08-17T06:31:22;22.10;58.50
19281;DHT22;9774;52.034;5.342;2023-08-17T06:33:52;22.10;58.90
19281;DHT22;9774;52.034;5.342;2023-08-17T06:36:20;22.10;58.30
19281;DHT22;9774;52.034;5.342;2023-08-17T06:38:46;22.20;58.30
19281;DHT22;9774;52.034;5.342;2023-08-17T06:41:14;22.20;58.30
19281;DHT22;9774;52.034;5.342;2023-08-17T06:43:40;22.20;58.20
19281;DHT22;9774;52.034;5.342;2023-08-17T06:46:07;22.20;58.20
19281;DHT22;9774;52.034;5.342;2023-08-17T06:48:36;22.20;58.20
19281;DHT22;9774;52.034;5.342;2023-08-17T06:51:03;22.20;58.20
19281;DHT22;9774;52.034;5.342;2023-08-17T06:53:31;22.20;58.30
19281;DHT22;9774;52.034;5.342;2023-08-17T06:55:58;22.30;58.40
19281;DHT22;9774;52.034;5.342;2023-08-17T06:58:25;22.30;58.40
19281;DHT22;9774;52.034;5.342;2023-08-17T07:00:52;22.30;58.40
19281;DHT22;9774;52.034;5.342;2023-08-17T07:03:19;22.30;58.40
19281;DHT22;9774;52.034;5.342;2023-08-17T07:05:48;22.40;58.40
19281;DHT22;9774;52.034;5.342;2023-08-17T07:08:15;22.40;58.40
19281;DHT22;9774;52.034;5.342;2023-08-17T07:10:42;22.40;58.40
19281;DHT22;9774;52.034;5.342;2023-08-17T07:13:09;22.40;58.30
19281;DHT22;9774;52.034;5.342;2023-08-17T07:15:36;22.50;58.30
19281;DHT22;9774;52.034;5.342;2023-08-17T07:18:03;22.50;58.30
19281;DHT22;9774;52.034;5.342;2023-08-17T07:20:32;22.50;58.30
19281;DHT22;9774;52.034;5.342;2023-08-17T07:23:00;22.60;58.40
19281;DHT22;9774;52.034;5.342;2023-08-17T07:25:28;22.60;58.40
19281;DHT22;9774;52.034;5.342;2023-08-17T07:27:55;22.60;58.50
19281;DHT22;9774;52.034;5.342;2023-08-17T07:30:22;22.60;58.50
19281;DHT22;9774;52.034;5.342;2023-08-17T07:32:50;22.70;58.70
19281;DHT22;9774;52.034;5.342;2023-08-17T07:35:17;22.80;58.70
19281;DHT22;9774;52.034;5.342;2023-08-17T07:37:43;22.80;58.60
19281;DHT22;9774;52.034;5.342;2023-08-17T07:40:12;22.90;58.50
19281;DHT22;9774;52.034;5.342;2023-08-17T07:42:39;22.90;58.40
19281;DHT22;9774;52.034;5.342;2023-08-17T07:45:07;23.00;58.40
19281;DHT22;9774;52.034;5.342;2023-08-17T07:47:35;23.00;58.20
19281;DHT22;9774;52.034;5.342;2023-08-17T07:50:03;23.10;58.10
19281;DHT22;9774;52.034;5.342;2023-08-17T07:52:31;23.10;58.00
19281;DHT22;9774;52.034;5.342;2023-08-17T07:54:58;23.10;57.90
19281;DHT22;9774;52.034;5.342;2023-08-17T07:57:26;23.20;57.90
19281;DHT22;9774;52.034;5.342;2023-08-17T07:59:53;23.20;57.90
19281;DHT22;9774;52.034;5.342;2023-08-17T08:02:20;23.20;57.90
19281;DHT22;9774;52.034;5.342;2023-08-17T08:04:47;23.20;57.90
19281;DHT22;9774;52.034;5.342;2023-08-17T08:07:14;23.30;58.00
19281;DHT22;9774;52.034;5.342;2023-08-17T08:09:41;23.30;57.90
19281;DHT22;9774;52.034;5.342;2023-08-17T08:12:08;23.30;57.80
19281;DHT22;9774;52.034;5.342;2023-08-17T08:14:36;23.40;57.80
19281;DHT22;9774;52.034;5.342;2023-08-17T08:17:03;23.40;57.70
19281;DHT22;9774;52.034;5.342;2023-08-17T08:19:30;23.40;57.60
19281;DHT22;9774;52.034;5.342;2023-08-17T08:21:58;23.40;57.60
19281;DHT22;9774;52.034;5.342;2023-08-17T08:24:25;23.50;57.60
19281;DHT22;9774;52.034;5.342;2023-08-17T08:26:56;23.50;57.70
19281;DHT22;9774;52.034;5.342;2023-08-17T08:29:23;23.50;57.70
19281;DHT22;9774;52.034;5.342;2023-08-17T08:31:52;23.60;57.80
19281;DHT22;9774;52.034;5.342;2023-08-17T08:34:19;23.70;57.90
19281;DHT22;9774;52.034;5.342;2023-08-17T08:36:46;23.70;57.70
19281;DHT22;9774;52.034;5.342;2023-08-17T08:39:14;23.80;57.80
19281;DHT22;9774;52.034;5.342;2023-08-17T08:41:41;23.80;57.70
19281;DHT22;9774;52.034;5.342;2023-08-17T08:44:08;23.90;57.60
19281;DHT22;9774;52.034;5.342;2023-08-17T08:46:36;24.00;57.60
19281;DHT22;9774;52.034;5.342;2023-08-17T08:49:10;24.00;57.50
19281;DHT22;9774;52.034;5.342;2023-08-17T08:51:42;24.10;57.40
19281;DHT22;9774;52.034;5.342;2023-08-17T08:54:14;24.20;57.30
19281;DHT22;9774;52.034;5.342;2023-08-17T08:56:46;24.20;57.20
19281;DHT22;9774;52.034;5.342;2023-08-17T08:59:20;24.20;57.00
19281;DHT22;9774;52.034;5.342;2023-08-17T09:01:47;24.20;57.00
19281;DHT22;9774;52.034;5.342;2023-08-17T09:04:16;24.30;56.90
19281;DHT22;9774;52.034;5.342;2023-08-17T09:06:44;24.20;56.90
19281;DHT22;9774;52.034;5.342;2023-08-17T09:09:12;24.30;57.00
19281;DHT22;9774;52.034;5.342;2023-08-17T09:11:42;24.30;57.10
19281;DHT22;9774;52.034;5.342;2023-08-17T09:14:09;24.30;57.20
19281;DHT22;9774;52.034;5.342;2023-08-17T09:16:36;24.40;57.30
19281;DHT22;9774;52.034;5.342;2023-08-17T09:19:03;24.40;57.10
19281;DHT22;9774;52.034;5.342;2023-08-17T09:21:33;24.40;56.90
19281;DHT22;9774;52.034;5.342;2023-08-17T09:24:00;24.40;56.80
19281;DHT22;9774;52.034;5.342;2023-08-17T09:26:30;24.50;56.80
19281;DHT22;9774;52.034;5.342;2023-08-17T09:28:59;24.50;56.70
19281;DHT22;9774;52.034;5.342;2023-08-17T09:31:30;24.50;56.60
19281;DHT22;9774;52.034;5.342;2023-08-17T09:33:58;24.50;56.60
19281;DHT22;9774;52.034;5.342;2023-08-17T09:36:35;24.50;56.60
19281;DHT22;9774;52.034;5.342;2023-08-17T09:39:02;24.50;56.60
19281;DHT22;9774;52.034;5.342;2023-08-17T09:41:29;24.50;56.70
19281;DHT22;9774;52.034;5.342;2023-08-17T09:43:56;24.50;56.70
19281;DHT22;9774;52.034;5.342;2023-08-17T09:46:23;24.50;56.70
19281;DHT22;9774;52.034;5.342;2023-08-17T09:48:53;24.50;56.80
19281;DHT22;9774;52.034;5.342;2023-08-17T09:51:20;24.50;56.80
19281;DHT22;9774;52.034;5.342;2023-08-17T09:53:53;24.60;56.90
19281;DHT22;9774;52.034;5.342;2023-08-17T09:56:22;24.60;57.10
19281;DHT22;9774;52.034;5.342;2023-08-17T09:58:50;24.60;57.10
19281;DHT22;9774;52.034;5.342;2023-08-17T10:01:18;24.60;57.10
19281;DHT22;9774;52.034;5.342;2023-08-17T10:03:48;24.70;57.20
19281;DHT22;9774;52.034;5.342;2023-08-17T10:06:22;24.70;57.20
19281;DHT22;9774;52.034;5.342;2023-08-17T10:08:54;24.80;57.00
19281;DHT22;9774;52.034;5.342;2023-08-17T10:11:26;24.90;57.00
19281;DHT22;9774;52.034;5.342;2023-08-17T10:14:00;24.90;56.90
19281;DHT22;9774;52.034;5.342;2023-08-17T10:16:37;25.00;56.80
19281;DHT22;9774;52.034;5.342;2023-08-17T10:19:16;25.00;56.60
19281;DHT22;9774;52.034;5.342;2023-08-17T10:21:53;25.10;56.70
19281;DHT22;9774;52.034;5.342;2023-08-17T10:24:27;25.10;56.70
19281;DHT22;9774;52.034;5.342;2023-08-17T10:26:56;25.20;56.70
19281;DHT22;9774;52.034;5.342;2023-08-17T10:29:24;25.20;56.70
19281;DHT22;9774;52.034;5.342;2023-08-17T10:31:52;25.30;56.70
19281;DHT22;9774;52.034;5.342;2023-08-17T10:34:20;25.30;57.10
19281;DHT22;9774;52.034;5.342;2023-08-17T10:36:47;25.30;56.40
19281;DHT22;9774;52.034;5.342;2023-08-17T10:39:19;25.30;56.20
19281;DHT22;9774;52.034;5.342;2023-08-17T10:41:50;25.30;56.10
19281;DHT22;9774;52.034;5.342;2023-08-17T10:44:18;25.30;56.00
19281;DHT22;9774;52.034;5.342;2023-08-17T10:47:19;25.30;56.00
19281;DHT22;9774;52.034;5.342;2023-08-17T10:49:48;25.30;55.90
19281;DHT22;9774;52.034;5.342;2023-08-17T10:52:25;25.30;56.00
19281;DHT22;9774;52.034;5.342;2023-08-17T10:54:58;25.30;56.00
19281;DHT22;9774;52.034;5.342;2023-08-17T10:57:34;25.30;56.00
19281;DHT22;9774;52.034;5.342;2023-08-17T11:00:13;25.30;55.90
19281;DHT22;9774;52.034;5.342;2023-08-17T11:02:43;25.30;56.10
19281;DHT22;9774;52.034;5.342;2023-08-17T11:05:11;25.30;56.10
19281;DHT22;9774;52.034;5.342;2023-08-17T11:07:40;25.30;56.10
19281;DHT22;9774;52.034;5.342;2023-08-17T11:10:12;25.30;56.00
19281;DHT22;9774;52.034;5.342;2023-08-17T11:12:54;25.30;56.10
19281;DHT22;9774;52.034;5.342;2023-08-17T11:15:25;25.30;56.10
19281;DHT22;9774;52.034;5.342;2023-08-17T11:17:53;25.30;56.10
19281;DHT22;9774;52.034;5.342;2023-08-17T11:20:22;25.30;56.60
19281;DHT22;9774;52.034;5.342;2023-08-17T11:22:50;25.30;56.10
19281;DHT22;9774;52.034;5.342;2023-08-17T11:25:17;25.30;56.10
19281;DHT22;9774;52.034;5.342;2023-08-17T11:27:46;25.30;56.10
19281;DHT22;9774;52.034;5.342;2023-08-17T11:30:14;25.30;56.00
19281;DHT22;9774;52.034;5.342;2023-08-17T11:32:42;25.40;56.00
19281;DHT22;9774;52.034;5.342;2023-08-17T11:35:09;25.40;56.10
19281;DHT22;9774;52.034;5.342;2023-08-17T11:37:36;25.40;56.20
19281;DHT22;9774;52.034;5.342;2023-08-17T11:40:04;25.40;56.10
19281;DHT22;9774;52.034;5.342;2023-08-17T11:42:31;25.40;56.10
19281;DHT22;9774;52.034;5.342;2023-08-17T11:44:59;25.40;56.00
19281;DHT22;9774;52.034;5.342;2023-08-17T11:47:27;25.40;56.10
19281;DHT22;9774;52.034;5.342;2023-08-17T11:49:59;25.40;55.90
19281;DHT22;9774;52.034;5.342;2023-08-17T11:52:27;25.40;56.00
19281;DHT22;9774;52.034;5.342;2023-08-17T11:54:57;25.40;55.90
19281;DHT22;9774;52.034;5.342;2023-08-17T11:57:24;25.40;55.90
19281;DHT22;9774;52.034;5.342;2023-08-17T11:59:53;25.40;55.90
19281;DHT22;9774;52.034;5.342;2023-08-17T12:02:23;25.40;55.90
19281;DHT22;9774;52.034;5.342;2023-08-17T12:04:52;25.40;56.00
19281;DHT22;9774;52.034;5.342;2023-08-17T12:07:21;25.40;56.00
19281;DHT22;9774;52.034;5.342;2023-08-17T12:09:48;25.40;56.00
19281;DHT22;9774;52.034;5.342;2023-08-17T12:12:17;25.40;56.10
19281;DHT22;9774;52.034;5.342;2023-08-17T12:14:46;25.40;56.20
19281;DHT22;9774;52.034;5.342;2023-08-17T12:17:14;25.50;56.10
19281;DHT22;9774;52.034;5.342;2023-08-17T12:19:43;25.50;56.20
19281;DHT22;9774;52.034;5.342;2023-08-17T12:22:13;25.50;56.30
19281;DHT22;9774;52.034;5.342;2023-08-17T12:24:40;25.50;56.20
19281;DHT22;9774;52.034;5.342;2023-08-17T12:27:07;25.50;56.10
19281;DHT22;9774;52.034;5.342;2023-08-17T12:29:45;25.50;56.10
19281;DHT22;9774;52.034;5.342;2023-08-17T12:32:14;25.50;55.90
19281;DHT22;9774;52.034;5.342;2023-08-17T12:34:42;25.50;55.90
19281;DHT22;9774;52.034;5.342;2023-08-17T12:37:11;25.50;55.90
19281;DHT22;9774;52.034;5.342;2023-08-17T12:39:38;25.50;55.80
19281;DHT22;9774;52.034;5.342;2023-08-17T12:42:06;25.50;55.80
19281;DHT22;9774;52.034;5.342;2023-08-17T12:44:33;25.50;55.90
19281;DHT22;9774;52.034;5.342;2023-08-17T12:47:00;25.50;55.90
19281;DHT22;9774;52.034;5.342;2023-08-17T12:49:27;25.50;55.90
19281;DHT22;9774;52.034;5.342;2023-08-17T12:51:54;25.50;55.90
19281;DHT22;9774;52.034;5.342;2023-08-17T12:54:22;25.50;55.80
19281;DHT22;9774;52.034;5.342;2023-08-17T12:56:49;25.50;55.80
19281;DHT22;9774;52.034;5.342;2023-08-17T12:59:16;25.50;55.80
19281;DHT22;9774;52.034;5.342;2023-08-17T13:01:43;25.40;55.80
19281;DHT22;9774;52.034;5.342;2023-08-17T13:04:10;25.40;55.80
19281;DHT22;9774;52.034;5.342;2023-08-17T13:06:37;25.40;55.80
19281;DHT22;9774;52.034;5.342;2023-08-17T13:09:05;25.30;55.80
19281;DHT22;9774;52.034;5.342;2023-08-17T13:11:33;25.30;55.90
19281;DHT22;9774;52.034;5.342;2023-08-17T13:14:00;25.30;56.00
19281;DHT22;9774;52.034;5.342;2023-08-17T13:16:27;25.30;56.00
19281;DHT22;9774;52.034;5.342;2023-08-17T13:18:54;25.30;56.00
19281;DHT22;9774;52.034;5.342;2023-08-17T13:21:21;25.30;56.00
19281;DHT22;9774;52.034;5.342;2023-08-17T13:23:54;25.30;56.20
19281;DHT22;9774;52.034;5.342;2023-08-17T13:26:22;25.30;56.10
19281;DHT22;9774;52.034;5.342;2023-08-17T13:28:50;25.30;56.10
19281;DHT22;9774;52.034;5.342;2023-08-17T13:31:17;25.20;56.00
19281;DHT22;9774;52.034;5.342;2023-08-17T13:33:44;25.20;56.10
19281;DHT22;9774;52.034;5.342;2023-08-17T13:36:11;25.20;56.20
19281;DHT22;9774;52.034;5.342;2023-08-17T13:38:38;25.20;56.20
19281;DHT22;9774;52.034;5.342;2023-08-17T13:41:05;25.20;56.40
19281;DHT22;9774;52.034;5.342;2023-08-17T13:43:32;25.20;56.50
19281;DHT22;9774;52.034;5.342;2023-08-17T13:46:01;25.20;56.50
19281;DHT22;9774;52.034;5.342;2023-08-17T13:48:28;25.20;56.60
19281;DHT22;9774;52.034;5.342;2023-08-17T13:50:55;25.30;56.60
19281;DHT22;9774;52.034;5.342;2023-08-17T13:53:22;25.30;56.60
19281;DHT22;9774;52.034;5.342;2023-08-17T13:55:49;25.30;56.70
19281;DHT22;9774;52.034;5.342;2023-08-17T13:58:16;25.30;56.70
19281;DHT22;9774;52.034;5.342;2023-08-17T14:00:43;25.40;56.70
19281;DHT22;9774;52.034;5.342;2023-08-17T14:03:13;25.40;56.70
19281;DHT22;9774;52.034;5.342;2023-08-17T14:05:40;25.40;56.60
19281;DHT22;9774;52.034;5.342;2023-08-17T14:08:07;25.50;56.60
19281;DHT22;9774;52.034;5.342;2023-08-17T14:10:36;25.50;56.40
19281;DHT22;9774;52.034;5.342;2023-08-17T14:13:03;25.50;56.30
19281;DHT22;9774;52.034;5.342;2023-08-17T14:15:30;25.50;56.30
19281;DHT22;9774;52.034;5.342;2023-08-17T14:17:57;25.40;57.00
19281;DHT22;9774;52.034;5.342;2023-08-17T14:20:26;25.40;56.90
19281;DHT22;9774;52.034;5.342;2023-08-17T14:22:53;25.40;57.40
19281;DHT22;9774;52.034;5.342;2023-08-17T14:25:20;25.50;56.70
19281;DHT22;9774;52.034;5.342;2023-08-17T14:27:47;25.50;56.50
19281;DHT22;9774;52.034;5.342;2023-08-17T14:30:14;25.50;56.50
19281;DHT22;9774;52.034;5.342;2023-08-17T14:32:41;25.50;56.50
19281;DHT22;9774;52.034;5.342;2023-08-17T14:35:08;25.50;56.50
19281;DHT22;9774;52.034;5.342;2023-08-17T14:37:36;25.50;56.50
19281;DHT22;9774;52.034;5.342;2023-08-17T14:40:04;25.40;56.50
19281;DHT22;9774;52.034;5.342;2023-08-17T14:42:32;25.40;56.40
19281;DHT22;9774;52.034;5.342;2023-08-17T14:44:59;25.40;56.40
19281;DHT22;9774;52.034;5.342;2023-08-17T14:47:26;25.40;56.40
19281;DHT22;9774;52.034;5.342;2023-08-17T14:49:53;25.40;56.50
19281;DHT22;9774;52.034;5.342;2023-08-17T14:52:21;25.40;56.60
19281;DHT22;9774;52.034;5.342;2023-08-17T14:54:50;25.40;56.70
19281;DHT22;9774;52.034;5.342;2023-08-17T14:57:17;25.40;56.80
19281;DHT22;9774;52.034;5.342;2023-08-17T14:59:45;25.40;56.90
19281;DHT22;9774;52.034;5.342;2023-08-17T15:02:12;25.50;56.90
19281;DHT22;9774;52.034;5.342;2023-08-17T15:04:39;25.50;56.90
19281;DHT22;9774;52.034;5.342;2023-08-17T15:07:06;25.50;56.80
19281;DHT22;9774;52.034;5.342;2023-08-17T15:09:37;25.50;56.80
19281;DHT22;9774;52.034;5.342;2023-08-17T15:12:06;25.60;56.90
19281;DHT22;9774;52.034;5.342;2023-08-17T15:14:34;25.60;56.90
19281;DHT22;9774;52.034;5.342;2023-08-17T15:17:01;25.60;56.80
19281;DHT22;9774;52.034;5.342;2023-08-17T15:19:27;25.60;56.80
19281;DHT22;9774;52.034;5.342;2023-08-17T15:21:55;25.70;56.90
19281;DHT22;9774;52.034;5.342;2023-08-17T15:24:22;25.70;56.80
19281;DHT22;9774;52.034;5.342;2023-08-17T15:26:49;25.70;56.70
19281;DHT22;9774;52.034;5.342;2023-08-17T15:29:17;25.70;56.60
19281;DHT22;9774;52.034;5.342;2023-08-17T15:31:44;25.70;56.60
19281;DHT22;9774;52.034;5.342;2023-08-17T15:34:11;25.70;56.70
19281;DHT22;9774;52.034;5.342;2023-08-17T15:36:38;25.70;56.60
19281;DHT22;9774;52.034;5.342;2023-08-17T15:39:07;25.70;56.50
19281;DHT22;9774;52.034;5.342;2023-08-17T15:41:34;25.70;56.40
19281;DHT22;9774;52.034;5.342;2023-08-17T15:44:01;25.70;57.00
19281;DHT22;9774;52.034;5.342;2023-08-17T15:46:29;25.60;56.40
19281;DHT22;9774;52.034;5.342;2023-08-17T15:48:57;25.60;56.40
19281;DHT22;9774;52.034;5.342;2023-08-17T15:51:24;25.60;56.50